sensor_id;sensor_type;location;lat;lon;timestamp;temperature;humidity
66373;SHT30;53168;51.146;17.120;2023-06-10T00:02:11;16.43;80.83
66373;SHT30;53168;51.146;17.120;2023-06-10T00:04:51;16.48;80.80
66373;SHT30;53168;51.146;17.120;2023-06-10T00:07:28;16.53;80.76
66373;SHT30;53168;51.146;17.120;2023-06-10T00:10:03;16.59;80.71
66373;SHT30;53168;51.146;17.120;2023-06-10T00:12:38;16.63;80.71
66373;SHT30;53168;51.146;17.120;2023-06-10T00:15:13;16.66;80.70
66373;SHT30;53168;51.146;17.120;2023-06-10T00:17:49;16.68;80.70
66373;SHT30;53168;51.146;17.120;2023-06-10T00:20:26;16.71;80.70
66373;SHT30;53168;51.146;17.120;2023-06-10T00:23:02;16.72;80.71
66373;SHT30;53168;51.146;17.120;2023-06-10T00:25:39;16.67;80.63
66373;SHT30;53168;51.146;17.120;2023-06-10T00:28:16;16.65;80.65
66373;SHT30;53168;51.146;17.120;2023-06-10T00:30:59;16.65;80.71
66373;SHT30;53168;51.146;17.120;2023-06-10T00:33:35;16.68;80.86
66373;SHT30;53168;51.146;17.120;2023-06-10T00:36:10;16.75;80.87
66373;SHT30;53168;51.146;17.120;2023-06-10T00:39:06;16.79;80.75
66373;SHT30;53168;51.146;17.120;2023-06-10T00:41:40;16.80;80.64
66373;SHT30;53168;51.146;17.120;2023-06-10T00:44:18;16.80;80.55
66373;SHT30;53168;51.146;17.120;2023-06-10T00:46:52;16.81;80.50
66373;SHT30;53168;51.146;17.120;2023-06-10T00:49:27;16.84;80.42
66373;SHT30;53168;51.146;17.120;2023-06-10T00:52:09;16.83;80.36
66373;SHT30;53168;51.146;17.120;2023-06-10T00:54:48;16.83;80.40
66373;SHT30;53168;51.146;17.120;2023-06-10T00:57:22;16.82;80.40
66373;SHT30;53168;51.146;17.120;2023-06-10T01:00:15;16.80;80.41
66373;SHT30;53168;51.146;17.120;2023-06-10T01:02:54;16.76;80.52
66373;SHT30;53168;51.146;17.120;2023-06-10T01:05:29;16.76;80.60
66373;SHT30;53168;51.146;17.120;2023-06-10T01:08:22;16.77;80.56
66373;SHT30;53168;51.146;17.120;2023-06-10T01:11:17;16.80;80.49
66373;SHT30;53168;51.146;17.120;2023-06-10T01:14:06;16.84;80.40
66373;SHT30;53168;51.146;17.120;2023-06-10T01:16:51;16.86;80.33
66373;SHT30;53168;51.146;17.120;2023-06-10T01:19:25;16.88;80.25
66373;SHT30;53168;51.146;17.120;2023-06-10T01:22:02;16.90;80.29
66373;SHT30;53168;51.146;17.120;2023-06-10T01:24:39;16.91;80.37
66373;SHT30;53168;51.146;17.120;2023-06-10T01:27:17;16.91;80.45
66373;SHT30;53168;51.146;17.120;2023-06-10T01:30:08;16.94;80.46
66373;SHT30;53168;51.146;17.120;2023-06-10T01:33:47;16.94;80.45
66373;SHT30;53168;51.146;17.120;2023-06-10T01:36:30;16.91;80.55
66373;SHT30;53168;51.146;17.120;2023-06-10T01:39:09;16.92;80.68
66373;SHT30;53168;51.146;17.120;2023-06-10T01:41:51;16.94;80.67
66373;SHT30;53168;51.146;17.120;2023-06-10T01:44:30;16.96;80.65
66373;SHT30;53168;51.146;17.120;2023-06-10T01:53:29;16.85;80.89
66373;SHT30;53168;51.146;17.120;2023-06-10T01:56:04;16.81;80.91
66373;SHT30;53168;51.146;17.120;2023-06-10T01:58:38;16.78;80.94
66373;SHT30;53168;51.146;17.120;2023-06-10T02:01:12;16.75;80.94
66373;SHT30;53168;51.146;17.120;2023-06-10T02:03:46;16.71;80.97
66373;SHT30;53168;51.146;17.120;2023-06-10T02:06:20;16.67;81.05
66373;SHT30;53168;51.146;17.120;2023-06-10T02:08:54;16.64;81.14
66373;SHT30;53168;51.146;17.120;2023-06-10T02:23:03;16.67;81.38
66373;SHT30;53168;51.146;17.120;2023-06-10T02:26:09;16.71;81.34
66373;SHT30;53168;51.146;17.120;2023-06-10T02:28:45;16.77;81.30
66373;SHT30;53168;51.146;17.120;2023-06-10T02:31:19;16.82;81.31
66373;SHT30;53168;51.146;17.120;2023-06-10T02:33:55;16.86;81.23
66373;SHT30;53168;51.146;17.120;2023-06-10T02:36:29;16.90;81.22
66373;SHT30;53168;51.146;17.120;2023-06-10T02:39:03;16.93;81.17
66373;SHT30;53168;51.146;17.120;2023-06-10T02:41:37;16.96;81.04
66373;SHT30;53168;51.146;17.120;2023-06-10T02:44:11;16.98;81.00
66373;SHT30;53168;51.146;17.120;2023-06-10T02:46:47;17.01;80.92
66373;SHT30;53168;51.146;17.120;2023-06-10T02:49:23;17.02;80.90
66373;SHT30;53168;51.146;17.120;2023-06-10T02:52:00;17.04;80.84
66373;SHT30;53168;51.146;17.120;2023-06-10T02:54:36;17.07;80.76
66373;SHT30;53168;51.146;17.120;2023-06-10T03:00:34;17.05;80.70
66373;SHT30;53168;51.146;17.120;2023-06-10T03:04:05;17.06;80.68
66373;SHT30;53168;51.146;17.120;2023-06-10T03:07:37;17.07;80.61
66373;SHT30;53168;51.146;17.120;2023-06-10T03:10:56;17.09;80.70
66373;SHT30;53168;51.146;17.120;2023-06-10T03:13:30;17.14;80.69
66373;SHT30;53168;51.146;17.120;2023-06-10T03:16:05;17.17;80.69
66373;SHT30;53168;51.146;17.120;2023-06-10T03:18:40;17.23;80.71
66373;SHT30;53168;51.146;17.120;2023-06-10T03:21:14;17.25;80.74
66373;SHT30;53168;51.146;17.120;2023-06-10T03:23:48;17.25;80.74
66373;SHT30;53168;51.146;17.120;2023-06-10T03:26:23;17.28;80.77
66373;SHT30;53168;51.146;17.120;2023-06-10T03:29:03;17.31;80.70
66373;SHT30;53168;51.146;17.120;2023-06-10T03:31:45;17.32;80.62
66373;SHT30;53168;51.146;17.120;2023-06-10T03:34:35;17.35;80.70
66373;SHT30;53168;51.146;17.120;2023-06-10T03:37:11;17.38;80.70
66373;SHT30;53168;51.146;17.120;2023-06-10T03:40:05;17.41;80.65
66373;SHT30;53168;51.146;17.120;2023-06-10T03:42:41;17.45;80.61
66373;SHT30;53168;51.146;17.120;2023-06-10T03:45:17;17.47;80.60
66373;SHT30;53168;51.146;17.120;2023-06-10T03:47:54;17.48;80.56
66373;SHT30;53168;51.146;17.120;2023-06-10T03:50:46;17.50;80.50
66373;SHT30;53168;51.146;17.120;2023-06-10T03:53:26;17.53;80.50
66373;SHT30;53168;51.146;17.120;2023-06-10T03:56:19;17.55;80.50
66373;SHT30;53168;51.146;17.120;2023-06-10T03:58:59;17.57;80.40
66373;SHT30;53168;51.146;17.120;2023-06-10T04:01:35;17.61;80.33
66373;SHT30;53168;51.146;17.120;2023-06-10T04:04:39;17.61;80.30
66373;SHT30;53168;51.146;17.120;2023-06-10T04:07:14;17.64;80.30
66373;SHT30;53168;51.146;17.120;2023-06-10T04:10:01;17.67;80.30
66373;SHT30;53168;51.146;17.120;2023-06-10T04:12:36;17.68;80.31
66373;SHT30;53168;51.146;17.120;2023-06-10T04:15:13;17.69;80.30
66373;SHT30;53168;51.146;17.120;2023-06-10T04:17:49;17.68;80.30
66373;SHT30;53168;51.146;17.120;2023-06-10T04:20:29;17.69;80.30
66373;SHT30;53168;51.146;17.120;2023-06-10T04:23:04;17.70;80.30
66373;SHT30;53168;51.146;17.120;2023-06-10T04:25:37;17.72;80.30
66373;SHT30;53168;51.146;17.120;2023-06-10T04:28:29;17.72;80.30
66373;SHT30;53168;51.146;17.120;2023-06-10T04:34:14;17.75;80.29
66373;SHT30;53168;51.146;17.120;2023-06-10T04:36:51;17.74;80.29
66373;SHT30;53168;51.146;17.120;2023-06-10T04:39:24;17.73;80.30
66373;SHT30;53168;51.146;17.120;2023-06-10T04:42:00;17.71;80.30
66373;SHT30;53168;51.146;17.120;2023-06-10T04:44:34;17.71;80.30
66373;SHT30;53168;51.146;17.120;2023-06-10T04:47:10;17.71;80.36
66373;SHT30;53168;51.146;17.120;2023-06-10T04:49:44;17.73;80.39
66373;SHT30;53168;51.146;17.120;2023-06-10T04:52:17;17.74;80.30
66373;SHT30;53168;51.146;17.120;2023-06-10T04:54:52;17.78;80.34
66373;SHT30;53168;51.146;17.120;2023-06-10T04:57:26;17.80;80.30
66373;SHT30;53168;51.146;17.120;2023-06-10T04:59:59;17.81;80.28
66373;SHT30;53168;51.146;17.120;2023-06-10T05:02:36;17.84;80.27
66373;SHT30;53168;51.146;17.120;2023-06-10T05:05:10;17.89;80.30
66373;SHT30;53168;51.146;17.120;2023-06-10T05:07:44;17.95;80.29
66373;SHT30;53168;51.146;17.120;2023-06-10T05:10:18;17.98;80.27
66373;SHT30;53168;51.146;17.120;2023-06-10T05:12:54;18.06;80.27
66373;SHT30;53168;51.146;17.120;2023-06-10T05:15:27;18.15;80.14
66373;SHT30;53168;51.146;17.120;2023-06-10T05:18:01;18.25;80.03
66373;SHT30;53168;51.146;17.120;2023-06-10T05:20:35;18.34;79.98
66373;SHT30;53168;51.146;17.120;2023-06-10T05:23:09;18.42;79.84
66373;SHT30;53168;51.146;17.120;2023-06-10T05:25:43;18.51;79.70
66373;SHT30;53168;51.146;17.120;2023-06-10T05:28:18;18.60;79.64
66373;SHT30;53168;51.146;17.120;2023-06-10T05:30:51;18.66;79.55
66373;SHT30;53168;51.146;17.120;2023-06-10T05:33:25;18.74;79.56
66373;SHT30;53168;51.146;17.120;2023-06-10T05:35:59;18.85;79.49
66373;SHT30;53168;51.146;17.120;2023-06-10T05:38:33;18.95;79.20
66373;SHT30;53168;51.146;17.120;2023-06-10T05:41:07;19.07;79.04
66373;SHT30;53168;51.146;17.120;2023-06-10T05:43:41;19.21;79.00
66373;SHT30;53168;51.146;17.120;2023-06-10T05:46:15;19.38;78.87
66373;SHT30;53168;51.146;17.120;2023-06-10T05:48:49;19.55;78.64
66373;SHT30;53168;51.146;17.120;2023-06-10T05:51:23;19.72;78.47
66373;SHT30;53168;51.146;17.120;2023-06-10T05:54:08;19.91;78.34
66373;SHT30;53168;51.146;17.120;2023-06-10T05:56:42;20.06;78.13
66373;SHT30;53168;51.146;17.120;2023-06-10T05:59:16;20.20;77.94
66373;SHT30;53168;51.146;17.120;2023-06-10T06:01:50;20.33;77.72
66373;SHT30;53168;51.146;17.120;2023-06-10T06:04:37;20.38;77.31
66373;SHT30;53168;51.146;17.120;2023-06-10T06:07:27;20.44;77.22
66373;SHT30;53168;51.146;17.120;2023-06-10T06:10:01;20.47;76.87
66373;SHT30;53168;51.146;17.120;2023-06-10T06:12:37;20.50;76.68
66373;SHT30;53168;51.146;17.120;2023-06-10T06:15:12;20.54;76.72
66373;SHT30;53168;51.146;17.120;2023-06-10T06:17:51;20.57;76.34
66373;SHT30;53168;51.146;17.120;2023-06-10T06:20:25;20.61;76.58
66373;SHT30;53168;51.146;17.120;2023-06-10T06:22:59;20.70;76.60
66373;SHT30;53168;51.146;17.120;2023-06-10T06:25:33;20.77;76.59
66373;SHT30;53168;51.146;17.120;2023-06-10T06:28:09;20.85;76.49
66373;SHT30;53168;51.146;17.120;2023-06-10T06:30:43;20.88;76.20
66373;SHT30;53168;51.146;17.120;2023-06-10T06:33:17;20.89;76.05
66373;SHT30;53168;51.146;17.120;2023-06-10T06:35:50;20.90;75.93
66373;SHT30;53168;51.146;17.120;2023-06-10T06:38:24;20.95;75.87
66373;SHT30;53168;51.146;17.120;2023-06-10T06:40:58;21.01;75.72
66373;SHT30;53168;51.146;17.120;2023-06-10T06:43:36;21.05;75.56
66373;SHT30;53168;51.146;17.120;2023-06-10T06:46:20;21.11;75.27
66373;SHT30;53168;51.146;17.120;2023-06-10T06:48:55;21.18;75.06
66373;SHT30;53168;51.146;17.120;2023-06-10T06:51:53;21.25;74.92
66373;SHT30;53168;51.146;17.120;2023-06-10T06:54:27;21.34;75.11
66373;SHT30;53168;51.146;17.120;2023-06-10T06:57:08;21.39;74.80
66373;SHT30;53168;51.146;17.120;2023-06-10T06:59:42;21.42;74.65
66373;SHT30;53168;51.146;17.120;2023-06-10T07:02:18;21.46;74.72
66373;SHT30;53168;51.146;17.120;2023-06-10T07:04:53;21.50;74.74
66373;SHT30;53168;51.146;17.120;2023-06-10T07:07:31;21.53;74.31
66373;SHT30;53168;51.146;17.120;2023-06-10T07:10:11;21.50;74.26
66373;SHT30;53168;51.146;17.120;2023-06-10T07:12:45;21.53;74.31
66373;SHT30;53168;51.146;17.120;2023-06-10T07:15:20;21.55;74.05
66373;SHT30;53168;51.146;17.120;2023-06-10T07:18:05;21.61;73.99
66373;SHT30;53168;51.146;17.120;2023-06-10T07:20:44;21.69;73.85
66373;SHT30;53168;51.146;17.120;2023-06-10T07:23:48;21.78;73.81
66373;SHT30;53168;51.146;17.120;2023-06-10T07:26:24;21.86;73.66
66373;SHT30;53168;51.146;17.120;2023-06-10T07:28:59;21.96;73.11
66373;SHT30;53168;51.146;17.120;2023-06-10T07:31:33;22.02;72.81
66373;SHT30;53168;51.146;17.120;2023-06-10T07:34:07;22.12;72.85
66373;SHT30;53168;51.146;17.120;2023-06-10T07:36:44;22.21;72.65
66373;SHT30;53168;51.146;17.120;2023-06-10T07:39:20;22.32;72.78
66373;SHT30;53168;51.146;17.120;2023-06-10T07:41:56;22.40;72.45
66373;SHT30;53168;51.146;17.120;2023-06-10T07:44:30;22.55;72.77
66373;SHT30;53168;51.146;17.120;2023-06-10T07:47:05;22.70;72.26
66373;SHT30;53168;51.146;17.120;2023-06-10T07:49:46;22.86;71.12
66373;SHT30;53168;51.146;17.120;2023-06-10T07:52:29;23.03;71.36
66373;SHT30;53168;51.146;17.120;2023-06-10T07:55:04;23.26;71.07
66373;SHT30;53168;51.146;17.120;2023-06-10T07:57:39;23.51;70.49
66373;SHT30;53168;51.146;17.120;2023-06-10T08:00:15;23.66;68.59
66373;SHT30;53168;51.146;17.120;2023-06-10T08:02:50;23.80;68.22
66373;SHT30;53168;51.146;17.120;2023-06-10T08:05:24;23.89;67.82
66373;SHT30;53168;51.146;17.120;2023-06-10T08:07:58;24.04;67.51
66373;SHT30;53168;51.146;17.120;2023-06-10T08:10:36;24.16;67.84
66373;SHT30;53168;51.146;17.120;2023-06-10T08:13:12;24.36;67.44
66373;SHT30;53168;51.146;17.120;2023-06-10T08:15:46;24.44;65.90
66373;SHT30;53168;51.146;17.120;2023-06-10T08:18:21;24.51;66.04
66373;SHT30;53168;51.146;17.120;2023-06-10T08:20:55;24.62;65.81
66373;SHT30;53168;51.146;17.120;2023-06-10T08:23:31;24.82;65.27
66373;SHT30;53168;51.146;17.120;2023-06-10T08:26:08;24.98;64.95
66373;SHT30;53168;51.146;17.120;2023-06-10T08:28:43;25.17;64.69
66373;SHT30;53168;51.146;17.120;2023-06-10T08:31:17;25.35;64.39
66373;SHT30;53168;51.146;17.120;2023-06-10T08:33:51;25.46;63.69
66373;SHT30;53168;51.146;17.120;2023-06-10T08:36:32;25.57;64.17
66373;SHT30;53168;51.146;17.120;2023-06-10T08:39:06;25.69;63.87
66373;SHT30;53168;51.146;17.120;2023-06-10T08:41:44;25.84;64.13
66373;SHT30;53168;51.146;17.120;2023-06-10T08:44:29;25.96;62.62
66373;SHT30;53168;51.146;17.120;2023-06-10T08:47:10;26.02;62.76
66373;SHT30;53168;51.146;17.120;2023-06-10T08:49:48;26.13;62.48
66373;SHT30;53168;51.146;17.120;2023-06-10T08:52:23;26.31;60.49
66373;SHT30;53168;51.146;17.120;2023-06-10T08:55:15;26.48;59.00
66373;SHT30;53168;51.146;17.120;2023-06-10T08:58:05;26.63;58.11
66373;SHT30;53168;51.146;17.120;2023-06-10T09:00:38;26.77;58.48
66373;SHT30;53168;51.146;17.120;2023-06-10T09:03:13;26.94;57.09
66373;SHT30;53168;51.146;17.120;2023-06-10T09:05:48;27.04;56.93
66373;SHT30;53168;51.146;17.120;2023-06-10T09:08:23;27.18;56.96
66373;SHT30;53168;51.146;17.120;2023-06-10T09:10:59;27.29;56.47
66373;SHT30;53168;51.146;17.120;2023-06-10T09:13:34;27.39;55.90
66373;SHT30;53168;51.146;17.120;2023-06-10T09:16:08;27.53;55.83
66373;SHT30;53168;51.146;17.120;2023-06-10T09:18:45;27.59;54.57
66373;SHT30;53168;51.146;17.120;2023-06-10T09:21:20;27.53;54.58
66373;SHT30;53168;51.146;17.120;2023-06-10T09:24:11;27.47;55.79
66373;SHT30;53168;51.146;17.120;2023-06-10T09:26:45;27.48;53.37
66373;SHT30;53168;51.146;17.120;2023-06-10T09:29:19;27.53;53.37
66373;SHT30;53168;51.146;17.120;2023-06-10T09:31:54;27.62;53.82
66373;SHT30;53168;51.146;17.120;2023-06-10T09:34:31;27.77;54.64
66373;SHT30;53168;51.146;17.120;2023-06-10T09:37:25;27.92;54.53
66373;SHT30;53168;51.146;17.120;2023-06-10T09:40:13;27.97;54.76
66373;SHT30;53168;51.146;17.120;2023-06-10T09:43:08;28.06;54.36
66373;SHT30;53168;51.146;17.120;2023-06-10T10:19:55;26.97;52.06
66373;SHT30;53168;51.146;17.120;2023-06-10T10:29:47;27.85;50.53
66373;SHT30;53168;51.146;17.120;2023-06-10T10:32:37;28.14;49.95
66373;SHT30;53168;51.146;17.120;2023-06-10T10:38:03;28.38;48.77
66373;SHT30;53168;51.146;17.120;2023-06-10T10:43:40;28.17;48.71
66373;SHT30;53168;51.146;17.120;2023-06-10T10:46:59;28.19;48.29
66373;SHT30;53168;51.146;17.120;2023-06-10T10:49:39;28.52;48.14
66373;SHT30;53168;51.146;17.120;2023-06-10T10:52:14;28.82;48.07
66373;SHT30;53168;51.146;17.120;2023-06-10T10:54:48;29.06;47.51
66373;SHT30;53168;51.146;17.120;2023-06-10T10:57:37;29.26;47.22
66373;SHT30;53168;51.146;17.120;2023-06-10T11:00:14;29.43;46.78
66373;SHT30;53168;51.146;17.120;2023-06-10T11:03:20;29.35;46.05
66373;SHT30;53168;51.146;17.120;2023-06-10T11:09:27;29.30;41.37
66373;SHT30;53168;51.146;17.120;2023-06-10T11:12:04;29.06;40.54
66373;SHT30;53168;51.146;17.120;2023-06-10T11:14:54;29.04;39.92
66373;SHT30;53168;51.146;17.120;2023-06-10T11:17:35;29.25;40.74
66373;SHT30;53168;51.146;17.120;2023-06-10T11:26:44;30.19;40.72
66373;SHT30;53168;51.146;17.120;2023-06-10T11:29:33;30.59;39.79
66373;SHT30;53168;51.146;17.120;2023-06-10T11:37:42;31.32;39.25
66373;SHT30;53168;51.146;17.120;2023-06-10T11:40:28;31.45;37.69
66373;SHT30;53168;51.146;17.120;2023-06-10T11:44:27;31.78;36.58
66373;SHT30;53168;51.146;17.120;2023-06-10T11:47:30;32.06;35.85
66373;SHT30;53168;51.146;17.120;2023-06-10T11:50:35;32.36;35.11
66373;SHT30;53168;51.146;17.120;2023-06-10T11:53:59;32.63;33.85
66373;SHT30;53168;51.146;17.120;2023-06-10T11:56:56;32.94;32.95
66373;SHT30;53168;51.146;17.120;2023-06-10T11:59:38;33.08;31.48
66373;SHT30;53168;51.146;17.120;2023-06-10T12:02:17;33.13;31.78
66373;SHT30;53168;51.146;17.120;2023-06-10T12:05:14;33.22;31.10
66373;SHT30;53168;51.146;17.120;2023-06-10T12:07:50;33.28;30.55
66373;SHT30;53168;51.146;17.120;2023-06-10T12:10:46;33.37;31.24
66373;SHT30;53168;51.146;17.120;2023-06-10T12:13:29;33.53;30.38
66373;SHT30;53168;51.146;17.120;2023-06-10T12:16:10;33.68;29.91
66373;SHT30;53168;51.146;17.120;2023-06-10T12:18:45;33.68;29.41
66373;SHT30;53168;51.146;17.120;2023-06-10T12:21:25;33.61;30.20
66373;SHT30;53168;51.146;17.120;2023-06-10T12:24:07;33.62;30.29
66373;SHT30;53168;51.146;17.120;2023-06-10T12:26:45;33.83;30.66
66373;SHT30;53168;51.146;17.120;2023-06-10T12:29:38;34.03;31.03
66373;SHT30;53168;51.146;17.120;2023-06-10T12:32:43;33.93;29.77
66373;SHT30;53168;51.146;17.120;2023-06-10T12:35:20;33.71;31.00
66373;SHT30;53168;51.146;17.120;2023-06-10T12:38:01;33.23;29.70
66373;SHT30;53168;51.146;17.120;2023-06-10T12:40:40;32.47;30.15
66373;SHT30;53168;51.146;17.120;2023-06-10T12:43:26;32.16;30.62
66373;SHT30;53168;51.146;17.120;2023-06-10T12:46:39;31.91;30.20
66373;SHT30;53168;51.146;17.120;2023-06-10T12:49:31;32.19;29.87
66373;SHT30;53168;51.146;17.120;2023-06-10T12:52:41;32.34;29.85
66373;SHT30;53168;51.146;17.120;2023-06-10T12:55:27;32.46;30.38
66373;SHT30;53168;51.146;17.120;2023-06-10T13:01:28;32.23;29.02
66373;SHT30;53168;51.146;17.120;2023-06-10T13:08:27;32.75;28.62
66373;SHT30;53168;51.146;17.120;2023-06-10T13:11:35;33.07;28.14
66373;SHT30;53168;51.146;17.120;2023-06-10T13:15:22;33.28;27.85
66373;SHT30;53168;51.146;17.120;2023-06-10T13:18:21;33.59;27.91
66373;SHT30;53168;51.146;17.120;2023-06-10T13:22:46;33.68;26.23
66373;SHT30;53168;51.146;17.120;2023-06-10T13:25:21;33.44;24.93
66373;SHT30;53168;51.146;17.120;2023-06-10T13:27:55;33.25;25.61
66373;SHT30;53168;51.146;17.120;2023-06-10T13:30:29;33.32;25.14
66373;SHT30;53168;51.146;17.120;2023-06-10T13:33:03;33.42;25.14
66373;SHT30;53168;51.146;17.120;2023-06-10T13:35:38;33.28;24.57
66373;SHT30;53168;51.146;17.120;2023-06-10T13:38:14;33.02;25.03
66373;SHT30;53168;51.146;17.120;2023-06-10T13:40:52;32.88;24.86
66373;SHT30;53168;51.146;17.120;2023-06-10T13:43:47;32.95;25.00
66373;SHT30;53168;51.146;17.120;2023-06-10T13:46:27;33.15;24.92
66373;SHT30;53168;51.146;17.120;2023-06-10T13:49:30;33.38;24.27
66373;SHT30;53168;51.146;17.120;2023-06-10T13:52:23;33.42;23.51
66373;SHT30;53168;51.146;17.120;2023-06-10T13:59:19;33.59;23.24
66373;SHT30;53168;51.146;17.120;2023-06-10T14:05:44;33.89;23.26
66373;SHT30;53168;51.146;17.120;2023-06-10T14:19:02;34.46;23.00
66373;SHT30;53168;51.146;17.120;2023-06-10T14:22:02;34.65;22.29
66373;SHT30;53168;51.146;17.120;2023-06-10T14:24:53;34.72;23.09
66373;SHT30;53168;51.146;17.120;2023-06-10T14:27:45;34.87;23.39
66373;SHT30;53168;51.146;17.120;2023-06-10T14:31:34;34.99;22.29
66373;SHT30;53168;51.146;17.120;2023-06-10T14:34:48;34.77;21.83
66373;SHT30;53168;51.146;17.120;2023-06-10T14:37:27;34.70;21.93
66373;SHT30;53168;51.146;17.120;2023-06-10T14:40:17;34.65;20.90
66373;SHT30;53168;51.146;17.120;2023-06-10T14:42:57;34.59;21.24
66373;SHT30;53168;51.146;17.120;2023-06-10T14:45:33;34.57;21.48
66373;SHT30;53168;51.146;17.120;2023-06-10T14:48:08;34.65;21.40
66373;SHT30;53168;51.146;17.120;2023-06-10T14:51:02;34.60;21.13
66373;SHT30;53168;51.146;17.120;2023-06-10T14:53:37;34.64;21.48
66373;SHT30;53168;51.146;17.120;2023-06-10T14:56:21;34.81;21.32
66373;SHT30;53168;51.146;17.120;2023-06-10T14:59:19;35.02;21.21
66373;SHT30;53168;51.146;17.120;2023-06-10T15:02:09;35.28;21.40
66373;SHT30;53168;51.146;17.120;2023-06-10T15:04:54;35.49;21.52
66373;SHT30;53168;51.146;17.120;2023-06-10T15:07:59;35.57;20.78
66373;SHT30;53168;51.146;17.120;2023-06-10T15:10:47;35.71;20.84
66373;SHT30;53168;51.146;17.120;2023-06-10T15:14:15;35.60;20.44
66373;SHT30;53168;51.146;17.120;2023-06-10T15:17:15;35.37;20.36
66373;SHT30;53168;51.146;17.120;2023-06-10T15:35:45;36.03;19.77
66373;SHT30;53168;51.146;17.120;2023-06-10T15:38:40;35.78;19.93
66373;SHT30;53168;51.146;17.120;2023-06-10T15:41:43;35.54;19.97
66373;SHT30;53168;51.146;17.120;2023-06-10T15:49:05;35.53;19.48
66373;SHT30;53168;51.146;17.120;2023-06-10T15:52:52;35.51;19.27
66373;SHT30;53168;51.146;17.120;2023-06-10T16:01:06;35.23;19.13
66373;SHT30;53168;51.146;17.120;2023-06-10T16:04:24;35.33;19.50
66373;SHT30;53168;51.146;17.120;2023-06-10T16:11:41;35.31;19.40
66373;SHT30;53168;51.146;17.120;2023-06-10T16:29:50;35.25;18.79
66373;SHT30;53168;51.146;17.120;2023-06-10T16:36:57;34.55;19.35
66373;SHT30;53168;51.146;17.120;2023-06-10T16:39:38;34.12;19.74
66373;SHT30;53168;51.146;17.120;2023-06-10T16:42:29;33.70;19.76
66373;SHT30;53168;51.146;17.120;2023-06-10T16:57:32;31.46;21.79
66373;SHT30;53168;51.146;17.120;2023-06-10T18:11:44;25.34;29.49
66373;SHT30;53168;51.146;17.120;2023-06-10T18:14:28;25.15;29.62
66373;SHT30;53168;51.146;17.120;2023-06-10T18:17:20;24.96;29.93
66373;SHT30;53168;51.146;17.120;2023-06-10T18:20:25;24.73;30.06
66373;SHT30;53168;51.146;17.120;2023-06-10T18:23:24;24.54;30.53
66373;SHT30;53168;51.146;17.120;2023-06-10T18:29:04;24.18;31.11
66373;SHT30;53168;51.146;17.120;2023-06-10T18:53:38;23.01;33.31
66373;SHT30;53168;51.146;17.120;2023-06-10T18:57:09;22.83;33.68
66373;SHT30;53168;51.146;17.120;2023-06-10T19:00:07;22.67;33.82
66373;SHT30;53168;51.146;17.120;2023-06-10T19:03:08;22.50;34.30
66373;SHT30;53168;51.146;17.120;2023-06-10T19:09:33;22.19;34.68
66373;SHT30;53168;51.146;17.120;2023-06-10T19:12:16;22.02;35.24
66373;SHT30;53168;51.146;17.120;2023-06-10T19:14:53;21.88;35.31
66373;SHT30;53168;51.146;17.120;2023-06-10T19:17:32;21.76;35.41
66373;SHT30;53168;51.146;17.120;2023-06-10T19:20:12;21.60;35.73
66373;SHT30;53168;51.146;17.120;2023-06-10T19:22:47;21.42;36.14
66373;SHT30;53168;51.146;17.120;2023-06-10T19:25:21;21.25;36.23
66373;SHT30;53168;51.146;17.120;2023-06-10T19:28:07;21.10;36.39
66373;SHT30;53168;51.146;17.120;2023-06-10T19:31:01;20.91;36.74
66373;SHT30;53168;51.146;17.120;2023-06-10T19:33:52;20.74;36.92
66373;SHT30;53168;51.146;17.120;2023-06-10T19:36:39;20.58;37.20
66373;SHT30;53168;51.146;17.120;2023-06-10T19:39:19;20.42;37.41
66373;SHT30;53168;51.146;17.120;2023-06-10T19:41:53;20.26;37.69
66373;SHT30;53168;51.146;17.120;2023-06-10T19:44:27;20.10;38.01
66373;SHT30;53168;51.146;17.120;2023-06-10T19:47:03;19.95;38.38
66373;SHT30;53168;51.146;17.120;2023-06-10T19:49:38;19.81;38.53
66373;SHT30;53168;51.146;17.120;2023-06-10T19:52:12;19.67;38.75
66373;SHT30;53168;51.146;17.120;2023-06-10T19:54:50;19.56;38.94
66373;SHT30;53168;51.146;17.120;2023-06-10T19:57:26;19.45;39.13
66373;SHT30;53168;51.146;17.120;2023-06-10T20:00:00;19.33;39.35
66373;SHT30;53168;51.146;17.120;2023-06-10T20:02:44;19.20;39.55
66373;SHT30;53168;51.146;17.120;2023-06-10T20:05:24;19.07;39.70
66373;SHT30;53168;51.146;17.120;2023-06-10T20:08:05;18.96;39.97
66373;SHT30;53168;51.146;17.120;2023-06-10T20:10:43;18.88;40.26
66373;SHT30;53168;51.146;17.120;2023-06-10T20:13:17;18.80;40.34
66373;SHT30;53168;51.146;17.120;2023-06-10T20:15:54;18.73;40.43
66373;SHT30;53168;51.146;17.120;2023-06-10T20:18:32;18.66;40.63
66373;SHT30;53168;51.146;17.120;2023-06-10T20:21:26;18.57;40.73
66373;SHT30;53168;51.146;17.120;2023-06-10T20:24:00;18.49;40.72
66373;SHT30;53168;51.146;17.120;2023-06-10T20:26:36;18.41;40.96
66373;SHT30;53168;51.146;17.120;2023-06-10T20:29:13;18.35;41.10
66373;SHT30;53168;51.146;17.120;2023-06-10T20:31:47;18.32;41.19
66373;SHT30;53168;51.146;17.120;2023-06-10T20:34:33;18.26;41.40
66373;SHT30;53168;51.146;17.120;2023-06-10T20:37:07;18.24;41.43
66373;SHT30;53168;51.146;17.120;2023-06-10T20:39:55;18.19;41.56
66373;SHT30;53168;51.146;17.120;2023-06-10T20:42:29;18.16;41.60
66373;SHT30;53168;51.146;17.120;2023-06-10T20:45:04;18.15;41.70
66373;SHT30;53168;51.146;17.120;2023-06-10T20:47:39;18.15;41.91
66373;SHT30;53168;51.146;17.120;2023-06-10T20:50:13;18.13;41.97
66373;SHT30;53168;51.146;17.120;2023-06-10T20:52:47;18.09;41.99
66373;SHT30;53168;51.146;17.120;2023-06-10T20:55:21;18.07;42.23
66373;SHT30;53168;51.146;17.120;2023-06-10T20:57:55;18.03;42.32
66373;SHT30;53168;51.146;17.120;2023-06-10T21:00:29;17.98;42.49
66373;SHT30;53168;51.146;17.120;2023-06-10T21:03:03;17.93;42.60
66373;SHT30;53168;51.146;17.120;2023-06-10T21:05:38;17.90;42.37
66373;SHT30;53168;51.146;17.120;2023-06-10T21:08:11;17.88;42.52
66373;SHT30;53168;51.146;17.120;2023-06-10T21:10:46;17.86;42.42
66373;SHT30;53168;51.146;17.120;2023-06-10T21:13:20;17.88;42.33
66373;SHT30;53168;51.146;17.120;2023-06-10T21:15:54;17.93;42.23
66373;SHT30;53168;51.146;17.120;2023-06-10T21:18:43;17.97;42.13
66373;SHT30;53168;51.146;17.120;2023-06-10T21:21:31;17.99;42.16
66373;SHT30;53168;51.146;17.120;2023-06-10T21:24:31;18.02;42.20
66373;SHT30;53168;51.146;17.120;2023-06-10T21:27:14;18.03;42.17